Time;durP1;ratioP1;P1;durP2;ratioP2;P2;SDS_P1;SDS_P2;PMS_P1;PMS_P2;Temp;Humidity;BMP_temperature;BMP_pressure;BME280_temperature;BME280_humidity;BME280_pressure;Samples;Min_cycle;Max_cycle;Signal;HPM_P1;HPM_P2
2022/01/28 00:05:23;;;;;;;28.73;12.52;;;;;;;;;;5045889;28;20028;-55
2022/01/28 00:07:53;;;;;;;29.50;13.05;;;;;;;;;;5039437;28;20037;-54
2022/01/28 00:10:22;;;;;;;30.65;13.82;;;;;;;;;;5026108;28;20029;-52
2022/01/28 00:13:19;;;;;;;31.20;12.60;;;;;;;;;;5025869;28;20028;-53
2022/01/28 00:15:44;;;;;;;29.05;12.77;;;;;;;;;;5025298;28;20029;-53
2022/01/28 00:39:34;;;;;;;30.83;13.02;;;;;;;;;;5040126;28;20117;-51
2022/01/28 00:42:00;;;;;;;28.52;12.63;;;;;;;;;;5046037;28;20031;-53
2022/01/28 00:44:26;;;;;;;32.95;13.82;;;;;;;;;;5046955;28;20031;-52
2022/01/28 00:46:52;;;;;;;32.03;13.10;;;;;;;;;;5047416;28;20052;-53
2022/01/28 00:49:18;;;;;;;30.15;13.88;;;;;;;;;;5035034;28;20029;-52
2022/01/28 00:51:44;;;;;;;32.03;13.48;;;;;;;;;;5027903;28;20072;-50
2022/01/28 00:54:11;;;;;;;30.45;13.07;;;;;;;;;;5027062;28;20034;-52
2022/01/28 00:56:37;;;;;;;29.92;13.50;;;;;;;;;;5026718;28;20034;-53
2022/01/28 00:59:03;;;;;;;33.20;13.35;;;;;;;;;;5026970;28;20057;-52
2022/01/28 01:01:29;;;;;;;31.35;13.13;;;;;;;;;;5040024;28;20020;-52
2022/01/28 01:03:59;;;;;;;35.55;14.20;;;;;;;;;;5066850;28;20036;-53
2022/01/28 01:06:25;;;;;;;31.00;12.45;;;;;;;;;;5066644;28;20028;-52
2022/01/28 01:08:52;;;;;;;31.25;14.05;;;;;;;;;;5045957;28;20497;-51
2022/01/28 01:11:21;;;;;;;30.23;13.45;;;;;;;;;;5047037;28;20412;-52
2022/01/28 01:13:47;;;;;;;31.90;13.90;;;;;;;;;;5046689;28;20021;-52
2022/01/28 01:16:15;;;;;;;32.95;13.85;;;;;;;;;;5047504;28;20036;-52
2022/01/28 01:19:02;;;;;;;34.70;15.35;;;;;;;;;;5045422;28;20076;-51
2022/01/28 01:21:30;;;;;;;35.45;14.65;;;;;;;;;;5045187;28;20036;-52
2022/01/28 01:23:58;;;;;;;31.80;14.77;;;;;;;;;;5040627;28;20068;-53
2022/01/28 01:26:43;;;;;;;35.55;14.77;;;;;;;;;;5026717;28;20026;-53
2022/01/28 01:29:12;;;;;;;28.88;12.43;;;;;;;;;;5026698;28;20091;-51
2022/01/28 01:31:41;;;;;;;34.10;14.32;;;;;;;;;;5026445;28;20096;-51
2022/01/28 01:34:17;;;;;;;32.85;13.07;;;;;;;;;;5028449;28;20040;-51
2022/01/28 01:36:44;;;;;;;30.45;14.05;;;;;;;;;;5046931;28;20400;-51
2022/01/28 01:39:11;;;;;;;31.15;14.55;;;;;;;;;;5032026;28;20029;-52
2022/01/28 01:41:51;;;;;;;28.75;13.00;;;;;;;;;;5025897;28;20112;-52
2022/01/28 01:52:35;;;;;;;29.30;13.13;;;;;;;;;;5046261;28;20052;-52
2022/01/28 01:55:01;;;;;;;29.98;12.77;;;;;;;;;;5035986;28;20021;-53
2022/01/28 01:57:27;;;;;;;30.00;13.35;;;;;;;;;;5025963;28;20022;-52
2022/01/28 01:59:53;;;;;;;33.22;13.55;;;;;;;;;;5026034;28;20060;-52
2022/01/28 02:02:19;;;;;;;31.42;13.20;;;;;;;;;;5026354;28;20454;-51
2022/01/28 02:04:45;;;;;;;35.75;14.65;;;;;;;;;;5030011;28;20504;-52
2022/01/28 02:07:13;;;;;;;29.85;12.60;;;;;;;;;;5046608;28;20032;-52
2022/01/28 02:09:40;;;;;;;31.05;14.88;;;;;;;;;;5045568;28;20159;-53
2022/01/28 02:12:07;;;;;;;34.38;15.57;;;;;;;;;;5045895;28;20688;-51
2022/01/28 02:14:33;;;;;;;32.90;15.90;;;;;;;;;;5041894;28;20492;-52
2022/01/28 02:16:59;;;;;;;37.65;16.85;;;;;;;;;;5026352;28;20026;-53
2022/01/28 02:19:27;;;;;;;36.40;15.90;;;;;;;;;;5025981;28;20025;-53
2022/01/28 02:21:53;;;;;;;33.63;15.70;;;;;;;;;;5030288;28;20025;-50
2022/01/28 02:24:29;;;;;;;32.70;15.43;;;;;;;;;;5029903;28;20029;-53
2022/01/28 02:26:55;;;;;;;32.72;13.48;;;;;;;;;;5030443;28;20033;-53
2022/01/28 02:29:30;;;;;;;31.77;13.98;;;;;;;;;;5029326;28;20044;-51
2022/01/28 02:31:57;;;;;;;33.58;13.90;;;;;;;;;;5029835;28;20022;-49
2022/01/28 02:34:23;;;;;;;37.80;14.55;;;;;;;;;;5029829;28;20032;-50
2022/01/28 02:36:50;;;;;;;33.92;14.50;;;;;;;;;;5047300;28;20025;-52
2022/01/28 02:39:16;;;;;;;32.95;15.00;;;;;;;;;;5050365;28;20035;-53
2022/01/28 02:41:46;;;;;;;31.75;13.73;;;;;;;;;;5050035;28;20033;-52
2022/01/28 02:44:37;;;;;;;29.25;13.77;;;;;;;;;;5048728;28;20534;-52
2022/01/28 02:47:04;;;;;;;34.00;14.85;;;;;;;;;;5029622;28;20032;-52
2022/01/28 02:49:36;;;;;;;34.75;13.52;;;;;;;;;;5029570;28;20057;-51
2022/01/28 02:52:03;;;;;;;37.60;14.82;;;;;;;;;;5029529;28;20918;-52
2022/01/28 02:54:32;;;;;;;32.20;14.15;;;;;;;;;;5028959;28;20048;-53
2022/01/28 02:57:03;;;;;;;30.60;13.30;;;;;;;;;;5029802;28;20531;-53
2022/01/28 02:59:29;;;;;;;33.92;14.00;;;;;;;;;;5029346;28;20025;-51
2022/01/28 03:01:55;;;;;;;34.78;14.48;;;;;;;;;;5029368;28;20426;-52
2022/01/28 03:07:06;;;;;;;33.47;14.15;;;;;;;;;;5030092;28;20122;-52
2022/01/28 03:10:28;;;;;;;31.95;13.90;;;;;;;;;;5028842;28;20037;-51
2022/01/28 03:12:32;;;;;;;31.25;13.55;;;;;;;;;;5031553;28;20041;-51
2022/01/28 03:15:05;;;;;;;31.10;13.60;;;;;;;;;;5029150;28;20033;-52
2022/01/28 03:22:53;;;;;;;31.83;13.45;;;;;;;;;;5037339;28;20030;-52
2022/01/28 03:25:19;;;;;;;35.50;14.20;;;;;;;;;;5033507;28;20404;-51
2022/01/28 03:27:52;;;;;;;32.10;13.25;;;;;;;;;;5049315;28;20104;-52
2022/01/28 03:30:19;;;;;;;31.10;12.65;;;;;;;;;;5048943;28;20029;-51
2022/01/28 03:32:45;;;;;;;33.75;14.40;;;;;;;;;;5048780;28;20037;-52
2022/01/28 03:35:14;;;;;;;33.88;14.50;;;;;;;;;;5047056;28;20020;-51
2022/01/28 03:37:40;;;;;;;31.35;13.75;;;;;;;;;;5048520;28;20373;-52
2022/01/28 03:40:07;;;;;;;34.30;14.38;;;;;;;;;;5048873;28;20536;-51
2022/01/28 03:42:33;;;;;;;31.85;13.40;;;;;;;;;;5048327;28;20021;-52
2022/01/28 03:45:00;;;;;;;34.78;13.95;;;;;;;;;;5046857;28;20032;-52
2022/01/28 03:47:26;;;;;;;30.80;14.43;;;;;;;;;;5048290;28;20028;-52
2022/01/28 03:49:52;;;;;;;30.08;13.55;;;;;;;;;;5048453;28;20966;-52
2022/01/28 03:52:18;;;;;;;26.02;11.82;;;;;;;;;;5048633;28;20668;-49
2022/01/28 03:54:44;;;;;;;27.98;12.35;;;;;;;;;;5047555;28;20122;-53
2022/01/28 03:57:10;;;;;;;29.70;12.82;;;;;;;;;;5046271;28;20027;-50
2022/01/28 03:59:36;;;;;;;27.35;12.20;;;;;;;;;;5047886;28;20021;-52
2022/01/28 04:02:05;;;;;;;29.90;13.00;;;;;;;;;;5048251;28;20086;-53
2022/01/28 04:12:38;;;;;;;26.02;12.18;;;;;;;;;;5028070;28;20095;-52
2022/01/28 04:17:50;;;;;;;26.42;11.32;;;;;;;;;;5028863;28;20099;-53
2022/01/28 04:20:16;;;;;;;24.10;11.48;;;;;;;;;;5028678;28;20496;-53
2022/01/28 04:22:42;;;;;;;24.33;11.15;;;;;;;;;;5028523;28;20072;-52
2022/01/28 04:25:09;;;;;;;23.95;11.18;;;;;;;;;;5028221;28;20032;-50
2022/01/28 04:27:35;;;;;;;27.55;12.40;;;;;;;;;;5027934;28;20029;-50
2022/01/28 04:30:01;;;;;;;25.35;10.93;;;;;;;;;;5028261;28;20143;-52
2022/01/28 04:32:29;;;;;;;23.50;11.75;;;;;;;;;;5028034;28;20501;-52
2022/01/28 04:34:55;;;;;;;26.35;11.65;;;;;;;;;;5028085;28;20022;-51
2022/01/28 04:37:33;;;;;;;24.70;11.90;;;;;;;;;;5027943;28;20090;-52
2022/01/28 04:40:12;;;;;;;24.25;11.63;;;;;;;;;;5028033;28;20017;-51
2022/01/28 04:45:26;;;;;;;24.00;10.93;;;;;;;;;;5027151;28;20033;-51
2022/01/28 04:48:42;;;;;;;24.65;11.35;;;;;;;;;;5042885;28;20463;-50
2022/01/28 04:51:01;;;;;;;25.58;11.63;;;;;;;;;;5026860;28;20670;-54
2022/01/28 04:56:30;;;;;;;25.63;11.15;;;;;;;;;;5028118;28;20693;-52
2022/01/28 05:02:44;;;;;;;23.20;11.20;;;;;;;;;;5027852;28;20056;-54
2022/01/28 05:07:38;;;;;;;26.10;10.95;;;;;;;;;;5034168;28;20111;-54
2022/01/28 05:10:35;;;;;;;22.80;10.88;;;;;;;;;;5031702;28;20028;-52
2022/01/28 05:26:52;;;;;;;19.38;9.25;;;;;;;;;;5044652;28;20048;-51
2022/01/28 05:29:18;;;;;;;20.70;10.57;;;;;;;;;;5046700;28;20020;-52
2022/01/28 05:31:46;;;;;;;21.33;9.80;;;;;;;;;;5036094;28;20574;-51
2022/01/28 05:34:12;;;;;;;20.30;9.30;;;;;;;;;;5027074;28;20483;-49
2022/01/28 05:36:39;;;;;;;24.65;10.65;;;;;;;;;;5029164;28;20021;-51
2022/01/28 05:39:05;;;;;;;22.05;9.98;;;;;;;;;;5046342;28;20083;-50
2022/01/28 05:41:32;;;;;;;24.13;11.05;;;;;;;;;;5043245;28;20507;-51
2022/01/28 05:44:00;;;;;;;22.52;10.98;;;;;;;;;;5046186;28;20028;-51
2022/01/28 05:46:28;;;;;;;24.85;12.63;;;;;;;;;;5055918;28;20040;-48
2022/01/28 05:48:55;;;;;;;27.48;13.27;;;;;;;;;;5066145;28;20032;-51
2022/01/28 05:51:21;;;;;;;31.05;14.35;;;;;;;;;;5059983;28;20031;-48
2022/01/28 05:53:47;;;;;;;31.88;15.50;;;;;;;;;;5026123;28;20149;-48
2022/01/28 05:56:13;;;;;;;27.00;13.60;;;;;;;;;;5026911;28;20531;-49
2022/01/28 05:58:39;;;;;;;28.98;13.77;;;;;;;;;;5027117;28;20355;-49
2022/01/28 06:01:05;;;;;;;30.40;13.55;;;;;;;;;;5025988;28;20493;-49
2022/01/28 06:03:32;;;;;;;24.83;12.00;;;;;;;;;;5045052;28;20037;-51
2022/01/28 06:05:58;;;;;;;23.95;11.60;;;;;;;;;;5046349;28;20400;-51
2022/01/28 06:08:24;;;;;;;21.83;10.85;;;;;;;;;;5036965;28;20037;-52
2022/01/28 06:10:50;;;;;;;24.52;11.50;;;;;;;;;;5036707;28;20033;-53
2022/01/28 06:13:16;;;;;;;24.27;11.05;;;;;;;;;;5032026;28;20037;-54
2022/01/28 06:15:43;;;;;;;22.10;10.35;;;;;;;;;;5046376;28;20044;-50
2022/01/28 06:18:10;;;;;;;21.88;10.45;;;;;;;;;;5046084;28;20043;-52
2022/01/28 06:20:36;;;;;;;24.05;11.20;;;;;;;;;;5045460;28;20128;-51
2022/01/28 06:23:03;;;;;;;20.25;9.88;;;;;;;;;;5034800;28;20033;-51
2022/01/28 06:25:29;;;;;;;20.80;9.73;;;;;;;;;;5032202;28;20034;-50
2022/01/28 06:27:55;;;;;;;22.58;10.32;;;;;;;;;;5035095;28;20152;-50
2022/01/28 06:30:22;;;;;;;19.52;9.30;;;;;;;;;;5037113;28;20022;-48
2022/01/28 06:32:49;;;;;;;18.58;10.00;;;;;;;;;;5027049;28;20124;-48
2022/01/28 06:35:15;;;;;;;19.52;9.75;;;;;;;;;;5025798;28;20071;-48
2022/01/28 06:37:42;;;;;;;19.80;9.85;;;;;;;;;;5043238;28;20388;-51
2022/01/28 06:40:09;;;;;;;19.58;9.73;;;;;;;;;;5046496;28;20021;-48
2022/01/28 06:42:35;;;;;;;20.50;9.82;;;;;;;;;;5040010;28;20100;-49
2022/01/28 06:45:01;;;;;;;17.80;9.23;;;;;;;;;;5046713;28;20025;-48
2022/01/28 06:47:28;;;;;;;17.70;8.85;;;;;;;;;;5038011;28;20048;-50
2022/01/28 06:49:54;;;;;;;21.30;9.65;;;;;;;;;;5036820;28;20106;-51
2022/01/28 06:52:20;;;;;;;20.98;10.35;;;;;;;;;;5033355;28;20159;-49
2022/01/28 06:54:46;;;;;;;18.10;9.10;;;;;;;;;;5026792;28;20030;-51
2022/01/28 06:57:12;;;;;;;20.05;10.23;;;;;;;;;;5027140;28;20130;-51
2022/01/28 06:59:38;;;;;;;20.00;9.60;;;;;;;;;;5026111;28;20036;-50
2022/01/28 07:02:05;;;;;;;22.27;10.77;;;;;;;;;;5026743;28;20033;-49
2022/01/28 07:04:31;;;;;;;21.50;10.57;;;;;;;;;;5026640;28;20067;-48
2022/01/28 07:06:57;;;;;;;21.45;10.70;;;;;;;;;;5038061;28;20033;-48
2022/01/28 07:09:23;;;;;;;21.20;10.23;;;;;;;;;;5035318;28;20044;-51
2022/01/28 07:11:49;;;;;;;19.67;9.85;;;;;;;;;;5049424;28;20459;-50
2022/01/28 07:14:15;;;;;;;19.27;9.98;;;;;;;;;;5050908;28;20384;-48
2022/01/28 07:16:41;;;;;;;21.90;10.68;;;;;;;;;;5050010;28;20055;-51
2022/01/28 07:19:09;;;;;;;20.17;9.70;;;;;;;;;;5038114;28;20033;-48
2022/01/28 07:21:35;;;;;;;19.73;9.50;;;;;;;;;;5029267;28;20107;-51
2022/01/28 07:24:02;;;;;;;22.00;10.65;;;;;;;;;;5049130;28;20091;-53
2022/01/28 07:26:29;;;;;;;20.67;10.27;;;;;;;;;;5048017;28;20044;-53
2022/01/28 07:28:55;;;;;;;19.40;9.85;;;;;;;;;;5035277;28;20297;-50
2022/01/28 07:31:21;;;;;;;19.27;9.68;;;;;;;;;;5037834;28;20033;-49
2022/01/28 07:33:48;;;;;;;20.13;9.35;;;;;;;;;;5032355;28;20064;-49
2022/01/28 07:36:14;;;;;;;19.85;9.18;;;;;;;;;;5033927;28;20029;-50
2022/01/28 07:38:40;;;;;;;17.95;9.20;;;;;;;;;;5030100;28;20030;-48
2022/01/28 07:41:07;;;;;;;15.77;8.65;;;;;;;;;;5034943;28;20112;-48
2022/01/28 07:43:37;;;;;;;15.02;8.00;;;;;;;;;;5027745;28;20037;-48
2022/01/28 07:46:04;;;;;;;18.05;7.93;;;;;;;;;;5039497;28;20021;-50
2022/01/28 07:48:31;;;;;;;16.45;7.97;;;;;;;;;;5028103;28;20064;-50
2022/01/28 07:50:57;;;;;;;13.68;7.13;;;;;;;;;;5032603;28;20116;-49
2022/01/28 07:53:23;;;;;;;15.25;8.77;;;;;;;;;;5037883;28;20505;-53
2022/01/28 07:55:49;;;;;;;15.18;7.55;;;;;;;;;;5028388;28;20025;-51
2022/01/28 07:58:15;;;;;;;15.73;7.38;;;;;;;;;;5026973;28;20022;-48
2022/01/28 08:00:42;;;;;;;17.02;7.55;;;;;;;;;;5041038;28;20032;-48
2022/01/28 08:03:08;;;;;;;13.57;7.10;;;;;;;;;;5049208;28;20040;-51
2022/01/28 08:05:34;;;;;;;12.95;7.22;;;;;;;;;;5045324;28;20025;-50
2022/01/28 08:08:04;;;;;;;13.52;7.68;;;;;;;;;;5045677;28;20041;-51
2022/01/28 08:10:32;;;;;;;16.05;7.50;;;;;;;;;;5025621;28;20032;-54
2022/01/28 08:13:03;;;;;;;16.05;7.93;;;;;;;;;;5045576;28;20094;-50
2022/01/28 08:15:29;;;;;;;16.55;8.52;;;;;;;;;;5048108;28;20387;-50
2022/01/28 08:17:56;;;;;;;19.65;9.48;;;;;;;;;;5048064;28;20025;-48
2022/01/28 08:20:22;;;;;;;17.38;8.90;;;;;;;;;;5045936;28;20060;-50
2022/01/28 08:22:53;;;;;;;17.55;9.05;;;;;;;;;;5047142;28;20029;-48
2022/01/28 08:25:20;;;;;;;19.48;9.65;;;;;;;;;;5046583;28;20103;-51
2022/01/28 08:27:46;;;;;;;20.48;9.70;;;;;;;;;;5046273;28;20025;-51
2022/01/28 08:30:12;;;;;;;21.60;10.23;;;;;;;;;;5046291;28;20079;-51
2022/01/28 08:32:38;;;;;;;19.95;9.75;;;;;;;;;;5046717;28;20634;-48
2022/01/28 08:35:05;;;;;;;19.65;9.73;;;;;;;;;;5046206;28;20033;-48
2022/01/28 08:37:31;;;;;;;22.58;10.35;;;;;;;;;;5045792;28;20488;-50
2022/01/28 08:39:57;;;;;;;22.23;10.35;;;;;;;;;;5045914;28;20020;-49
2022/01/28 08:42:23;;;;;;;19.15;9.63;;;;;;;;;;5045970;28;20032;-49
2022/01/28 08:44:50;;;;;;;21.77;9.50;;;;;;;;;;5046193;28;20432;-48
2022/01/28 08:47:16;;;;;;;18.67;8.52;;;;;;;;;;5045754;28;20093;-47
2022/01/28 08:49:43;;;;;;;19.02;9.23;;;;;;;;;;5045419;28;20463;-48
2022/01/28 08:52:09;;;;;;;16.30;8.75;;;;;;;;;;5046492;28;20122;-48
2022/01/28 08:54:35;;;;;;;16.15;7.72;;;;;;;;;;5045275;28;20100;-48
2022/01/28 08:57:02;;;;;;;13.07;6.65;;;;;;;;;;5045988;28;20056;-49
2022/01/28 08:59:28;;;;;;;14.82;7.47;;;;;;;;;;5045469;28;20498;-50
2022/01/28 09:01:54;;;;;;;11.70;5.85;;;;;;;;;;5045663;28;20036;-50
2022/01/28 09:04:21;;;;;;;10.80;5.35;;;;;;;;;;5045587;28;20484;-51
2022/01/28 09:06:47;;;;;;;9.40;5.07;;;;;;;;;;5045400;28;20089;-50
2022/01/28 09:09:14;;;;;;;9.23;4.97;;;;;;;;;;5045326;28;20033;-51
2022/01/28 09:14:14;;;;;;;7.28;3.92;;;;;;;;;;5045536;28;20087;-51
2022/01/28 09:16:44;;;;;;;6.45;3.80;;;;;;;;;;5045200;28;20045;-53
2022/01/28 09:19:10;;;;;;;7.65;4.05;;;;;;;;;;5045925;28;20013;-51
2022/01/28 09:21:36;;;;;;;6.93;4.00;;;;;;;;;;5045491;28;20029;-50
2022/01/28 09:24:03;;;;;;;7.53;3.60;;;;;;;;;;5045351;28;20047;-52
2022/01/28 09:26:29;;;;;;;6.50;3.75;;;;;;;;;;5044819;28;20039;-51
2022/01/28 09:28:55;;;;;;;5.75;3.35;;;;;;;;;;5044586;28;20100;-52
2022/01/28 09:31:22;;;;;;;6.30;3.45;;;;;;;;;;5045269;28;20052;-51
2022/01/28 09:33:48;;;;;;;6.60;3.60;;;;;;;;;;5032276;28;20025;-51
2022/01/28 09:36:14;;;;;;;8.52;4.18;;;;;;;;;;5027394;28;20420;-52
2022/01/28 09:38:40;;;;;;;8.00;3.80;;;;;;;;;;5024209;28;20030;-52
2022/01/28 09:41:07;;;;;;;7.32;3.90;;;;;;;;;;5025745;28;20447;-51
2022/01/28 09:43:33;;;;;;;8.88;5.03;;;;;;;;;;5035097;28;20463;-52
2022/01/28 09:46:01;;;;;;;8.63;4.22;;;;;;;;;;5029864;28;20053;-51
2022/01/28 09:48:27;;;;;;;8.25;4.55;;;;;;;;;;5039961;28;20029;-48
2022/01/28 09:50:53;;;;;;;7.97;3.95;;;;;;;;;;5046688;28;20028;-50
2022/01/28 09:53:19;;;;;;;6.43;3.60;;;;;;;;;;5026711;28;20741;-51
2022/01/28 09:55:47;;;;;;;9.25;4.65;;;;;;;;;;5025980;28;20276;-49
2022/01/28 09:58:14;;;;;;;9.30;4.65;;;;;;;;;;5060202;28;20025;-50
2022/01/28 10:00:41;;;;;;;8.70;3.97;;;;;;;;;;5061684;28;20067;-48
2022/01/28 10:03:08;;;;;;;8.20;3.88;;;;;;;;;;5056396;28;20024;-50
2022/01/28 10:05:34;;;;;;;8.45;4.20;;;;;;;;;;5026139;28;20029;-50
2022/01/28 10:08:20;;;;;;;8.05;4.10;;;;;;;;;;5028785;28;20044;-48
2022/01/28 10:10:49;;;;;;;8.13;4.18;;;;;;;;;;5039432;28;20303;-51
2022/01/28 10:13:26;;;;;;;9.70;5.05;;;;;;;;;;5045264;28;20024;-50
2022/01/28 10:16:12;;;;;;;8.77;4.50;;;;;;;;;;5026906;28;20040;-52
2022/01/28 10:18:47;;;;;;;9.05;4.80;;;;;;;;;;5025908;28;20032;-51
2022/01/28 10:21:15;;;;;;;7.63;4.57;;;;;;;;;;5037598;28;20029;-52
2022/01/28 10:23:41;;;;;;;8.52;4.40;;;;;;;;;;5025399;28;20462;-50
2022/01/28 10:26:07;;;;;;;8.77;4.40;;;;;;;;;;5026328;28;20030;-52
2022/01/28 10:28:33;;;;;;;8.43;5.25;;;;;;;;;;5025822;28;20025;-53
2022/01/28 10:31:03;;;;;;;8.70;4.35;;;;;;;;;;5032241;28;20037;-54
2022/01/28 10:33:29;;;;;;;8.57;4.70;;;;;;;;;;5031883;28;20029;-52
2022/01/28 10:35:57;;;;;;;7.88;4.20;;;;;;;;;;5032816;28;20578;-53
2022/01/28 10:38:30;;;;;;;9.70;4.90;;;;;;;;;;5046220;28;20021;-52
2022/01/28 10:41:13;;;;;;;10.95;5.13;;;;;;;;;;5040243;28;20028;-51
2022/01/28 10:43:44;;;;;;;8.75;4.57;;;;;;;;;;5029728;28;20103;-51
2022/01/28 10:46:10;;;;;;;9.07;4.90;;;;;;;;;;5029591;28;20464;-50
2022/01/28 10:48:53;;;;;;;7.63;4.20;;;;;;;;;;5029461;28;20720;-52
2022/01/28 10:51:20;;;;;;;7.10;3.60;;;;;;;;;;5029942;28;20025;-53
2022/01/28 10:54:02;;;;;;;9.43;4.82;;;;;;;;;;5029330;28;20667;-53
2022/01/28 10:56:28;;;;;;;9.52;5.30;;;;;;;;;;5038514;28;20104;-52
2022/01/28 10:58:56;;;;;;;11.35;5.40;;;;;;;;;;5046336;28;20064;-51
2022/01/28 11:01:23;;;;;;;9.93;5.28;;;;;;;;;;5036823;28;20087;-51
2022/01/28 11:03:49;;;;;;;11.88;6.10;;;;;;;;;;5038431;28;20033;-53
2022/01/28 11:06:16;;;;;;;10.82;5.25;;;;;;;;;;5033741;28;20041;-53
2022/01/28 11:08:43;;;;;;;8.68;4.78;;;;;;;;;;5030745;28;20048;-52
2022/01/28 11:11:09;;;;;;;11.77;5.78;;;;;;;;;;5033818;28;20017;-51
2022/01/28 11:13:36;;;;;;;8.55;4.30;;;;;;;;;;5048952;28;20040;-53
2022/01/28 11:16:02;;;;;;;9.07;4.47;;;;;;;;;;5045281;28;20029;-52
2022/01/28 11:18:29;;;;;;;7.45;4.05;;;;;;;;;;5037611;28;20550;-50
2022/01/28 11:20:56;;;;;;;7.70;4.18;;;;;;;;;;5029723;28;20553;-53
2022/01/28 11:23:22;;;;;;;8.90;4.68;;;;;;;;;;5040916;28;20102;-53
2022/01/28 11:25:51;;;;;;;7.45;4.25;;;;;;;;;;5048300;28;20380;-50
2022/01/28 11:28:17;;;;;;;10.07;4.90;;;;;;;;;;5055148;28;20036;-50
2022/01/28 11:30:46;;;;;;;7.50;4.20;;;;;;;;;;5042742;28;20107;-50
2022/01/28 11:33:13;;;;;;;7.45;4.20;;;;;;;;;;5034220;28;20045;-53
2022/01/28 11:35:49;;;;;;;7.65;4.38;;;;;;;;;;5029436;28;20017;-53
2022/01/28 11:38:27;;;;;;;12.45;6.50;;;;;;;;;;5029439;28;20084;-51
2022/01/28 11:41:00;;;;;;;10.68;6.22;;;;;;;;;;5037501;28;20056;-50
2022/01/28 11:43:28;;;;;;;9.23;5.47;;;;;;;;;;5038407;28;20426;-52
2022/01/28 11:46:09;;;;;;;9.32;5.38;;;;;;;;;;5033873;28;20398;-52
2022/01/28 11:48:54;;;;;;;8.73;4.68;;;;;;;;;;5031027;28;20440;-52
2022/01/28 11:51:24;;;;;;;7.40;4.63;;;;;;;;;;5035837;28;20046;-50
2022/01/28 11:53:58;;;;;;;6.38;4.10;;;;;;;;;;5035636;28;20049;-54
2022/01/28 11:56:24;;;;;;;7.13;4.33;;;;;;;;;;5030874;28;20031;-52
2022/01/28 11:58:54;;;;;;;6.28;3.83;;;;;;;;;;5042026;28;20271;-53
2022/01/28 12:01:43;;;;;;;6.60;3.80;;;;;;;;;;5033885;28;20152;-50
2022/01/28 12:04:25;;;;;;;4.78;3.35;;;;;;;;;;5057524;28;20532;-51
2022/01/28 12:07:15;;;;;;;7.80;4.32;;;;;;;;;;5042566;28;20733;-55
2022/01/28 12:09:43;;;;;;;7.07;4.20;;;;;;;;;;5056544;28;20516;-49
2022/01/28 12:12:11;;;;;;;6.03;3.53;;;;;;;;;;5048376;28;20036;-52
2022/01/28 12:14:49;;;;;;;7.22;3.55;;;;;;;;;;5028774;28;20032;-50
2022/01/28 12:17:31;;;;;;;6.25;3.67;;;;;;;;;;5035839;28;20029;-52
2022/01/28 12:20:15;;;;;;;6.18;3.42;;;;;;;;;;5027863;28;20032;-51
2022/01/28 12:23:00;;;;;;;6.50;3.92;;;;;;;;;;5033509;28;20028;-50
2022/01/28 12:25:41;;;;;;;5.90;3.83;;;;;;;;;;5036986;28;20100;-51
2022/01/28 12:28:20;;;;;;;7.60;3.90;;;;;;;;;;5037503;28;20488;-50
2022/01/28 12:30:47;;;;;;;6.68;4.07;;;;;;;;;;5046531;28;20498;-52
2022/01/28 12:33:14;;;;;;;5.00;3.30;;;;;;;;;;5046477;28;20378;-51
2022/01/28 12:35:41;;;;;;;5.97;3.50;;;;;;;;;;5046446;28;20658;-52
2022/01/28 12:38:08;;;;;;;6.07;3.75;;;;;;;;;;5042171;28;20532;-53
2022/01/28 12:40:41;;;;;;;5.88;3.55;;;;;;;;;;5045220;28;20029;-53
2022/01/28 12:43:07;;;;;;;6.20;3.70;;;;;;;;;;5047155;28;20099;-53
2022/01/28 12:45:34;;;;;;;6.53;3.72;;;;;;;;;;5043574;28;20029;-53
2022/01/28 12:48:01;;;;;;;6.70;3.65;;;;;;;;;;5029876;28;20116;-52
2022/01/28 12:50:28;;;;;;;5.05;3.45;;;;;;;;;;5028865;28;20022;-50
2022/01/28 12:52:55;;;;;;;4.90;3.45;;;;;;;;;;5034684;28;20045;-50
2022/01/28 12:55:21;;;;;;;6.22;4.15;;;;;;;;;;5046090;28;20025;-52
2022/01/28 12:57:47;;;;;;;5.32;3.47;;;;;;;;;;5047655;28;20025;-54
2022/01/28 13:00:15;;;;;;;4.93;3.03;;;;;;;;;;5047456;28;20485;-53
2022/01/28 13:02:42;;;;;;;4.65;3.13;;;;;;;;;;5036340;28;20048;-52
2022/01/28 13:10:20;;;;;;;5.35;3.20;;;;;;;;;;5042309;28;20562;-53
2022/01/28 13:12:47;;;;;;;5.13;3.25;;;;;;;;;;5047750;28;20055;-50
2022/01/28 13:15:13;;;;;;;6.13;3.53;;;;;;;;;;5030040;28;20037;-51
2022/01/28 13:17:41;;;;;;;5.50;2.88;;;;;;;;;;5028843;28;20084;-52
2022/01/28 13:20:10;;;;;;;4.95;2.90;;;;;;;;;;5034570;28;21221;-52
2022/01/28 13:22:37;;;;;;;5.40;3.25;;;;;;;;;;5047678;28;20021;-50
2022/01/28 13:25:16;;;;;;;4.40;3.00;;;;;;;;;;5045751;28;20090;-50
2022/01/28 13:27:44;;;;;;;6.20;2.80;;;;;;;;;;5028679;28;20075;-50
2022/01/28 13:30:15;;;;;;;4.28;2.78;;;;;;;;;;5036016;28;20151;-52
2022/01/28 13:32:44;;;;;;;4.40;2.88;;;;;;;;;;5036794;28;20036;-49
2022/01/28 13:35:14;;;;;;;4.05;2.75;;;;;;;;;;5045346;28;20025;-53
2022/01/28 13:37:43;;;;;;;4.40;2.90;;;;;;;;;;5044718;28;20025;-53
2022/01/28 13:40:13;;;;;;;6.07;3.45;;;;;;;;;;5043785;28;20037;-52
2022/01/28 13:42:56;;;;;;;5.47;3.65;;;;;;;;;;5033059;28;20021;-49
2022/01/28 13:45:28;;;;;;;5.18;3.25;;;;;;;;;;5044104;28;20086;-49
2022/01/28 13:47:54;;;;;;;5.22;3.50;;;;;;;;;;5047842;28;20032;-52
2022/01/28 13:50:24;;;;;;;6.78;3.83;;;;;;;;;;5041947;28;20036;-54
2022/01/28 13:53:07;;;;;;;8.27;4.55;;;;;;;;;;5040042;28;20056;-53
2022/01/28 13:55:34;;;;;;;5.70;3.53;;;;;;;;;;5047129;28;20070;-50
2022/01/28 13:58:03;;;;;;;6.45;3.92;;;;;;;;;;5047255;28;20052;-49
2022/01/28 14:00:35;;;;;;;6.00;3.63;;;;;;;;;;5034561;28;20370;-53
2022/01/28 14:03:01;;;;;;;6.10;3.65;;;;;;;;;;5026539;28;20037;-49
2022/01/28 14:05:47;;;;;;;7.47;4.05;;;;;;;;;;5037677;28;20021;-51
2022/01/28 14:08:13;;;;;;;8.23;4.70;;;;;;;;;;5039746;28;20033;-50
2022/01/28 14:10:39;;;;;;;5.40;3.67;;;;;;;;;;5035051;28;20108;-53
2022/01/28 14:13:19;;;;;;;5.47;3.72;;;;;;;;;;5046394;28;20033;-53
2022/01/28 14:15:53;;;;;;;5.80;3.80;;;;;;;;;;5029831;28;20407;-53
2022/01/28 14:18:19;;;;;;;6.50;4.05;;;;;;;;;;5043737;28;20113;-49
2022/01/28 14:20:46;;;;;;;6.10;3.78;;;;;;;;;;5051627;28;20025;-53
2022/01/28 14:23:13;;;;;;;7.95;4.50;;;;;;;;;;5036555;28;20033;-53
2022/01/28 14:25:39;;;;;;;5.68;3.47;;;;;;;;;;5032284;28;20485;-53
2022/01/28 14:28:24;;;;;;;5.78;3.47;;;;;;;;;;5032558;28;20033;-51
2022/01/28 14:31:06;;;;;;;7.32;3.92;;;;;;;;;;5032851;28;20023;-53
2022/01/28 14:33:32;;;;;;;6.53;3.83;;;;;;;;;;5032038;28;20120;-53
2022/01/28 14:35:58;;;;;;;5.70;3.38;;;;;;;;;;5050028;28;20134;-49
2022/01/28 14:38:24;;;;;;;4.72;3.53;;;;;;;;;;5052305;28;20049;-53
2022/01/28 14:40:51;;;;;;;5.43;3.60;;;;;;;;;;5051606;28;20021;-53
2022/01/28 14:43:17;;;;;;;5.40;3.40;;;;;;;;;;5052267;28;20102;-53
2022/01/28 14:45:43;;;;;;;6.20;3.78;;;;;;;;;;5051717;28;20287;-53
2022/01/28 14:48:09;;;;;;;7.45;4.15;;;;;;;;;;5068295;28;20089;-53
2022/01/28 14:50:37;;;;;;;6.28;3.83;;;;;;;;;;5070803;28;20037;-53
2022/01/28 14:53:03;;;;;;;6.07;3.80;;;;;;;;;;5033434;28;20049;-52
2022/01/28 14:55:30;;;;;;;6.30;3.80;;;;;;;;;;5033999;28;20551;-53
2022/01/28 14:57:56;;;;;;;6.22;3.92;;;;;;;;;;5035096;28;20033;-52
2022/01/28 15:00:22;;;;;;;8.48;5.43;;;;;;;;;;5044633;28;20045;-53
2022/01/28 15:02:48;;;;;;;7.95;4.88;;;;;;;;;;5051387;28;20086;-53
2022/01/28 15:05:14;;;;;;;7.80;4.72;;;;;;;;;;5039435;28;21886;-53
2022/01/28 15:07:40;;;;;;;7.70;4.57;;;;;;;;;;5035635;28;20060;-53
2022/01/28 15:10:09;;;;;;;6.53;4.10;;;;;;;;;;5042508;28;20070;-52
2022/01/28 15:12:35;;;;;;;7.72;4.43;;;;;;;;;;5053414;28;20029;-49
2022/01/28 15:15:01;;;;;;;7.82;4.65;;;;;;;;;;5045786;28;20408;-53
2022/01/28 15:17:28;;;;;;;12.35;5.85;;;;;;;;;;5033346;28;20030;-51
2022/01/28 15:19:54;;;;;;;11.55;6.28;;;;;;;;;;5040255;28;20500;-50
2022/01/28 15:22:20;;;;;;;10.20;5.65;;;;;;;;;;5037591;28;20121;-50
2022/01/28 15:24:46;;;;;;;8.15;4.95;;;;;;;;;;5038248;28;20044;-53
2022/01/28 15:27:13;;;;;;;9.70;5.78;;;;;;;;;;5049134;28;20043;-51
2022/01/28 15:37:29;;;;;;;8.40;5.28;;;;;;;;;;5039842;28;20095;-52
2022/01/28 15:39:56;;;;;;;9.55;4.90;;;;;;;;;;5048376;28;20025;-48
2022/01/28 15:42:22;;;;;;;9.48;5.45;;;;;;;;;;5046171;28;20033;-51
2022/01/28 15:44:48;;;;;;;8.30;4.80;;;;;;;;;;5049505;28;20457;-54
2022/01/28 15:47:15;;;;;;;10.10;5.28;;;;;;;;;;5060862;28;20510;-52
2022/01/28 15:49:41;;;;;;;8.30;4.88;;;;;;;;;;5040170;28;20101;-53
2022/01/28 15:52:09;;;;;;;7.70;4.60;;;;;;;;;;5028761;28;20064;-51
2022/01/28 15:54:35;;;;;;;7.15;4.40;;;;;;;;;;5027996;28;20036;-53
2022/01/28 15:57:01;;;;;;;9.20;5.00;;;;;;;;;;5039128;28;20022;-53
2022/01/28 15:59:27;;;;;;;8.55;4.90;;;;;;;;;;5027961;28;20033;-52
2022/01/28 16:01:54;;;;;;;9.95;5.20;;;;;;;;;;5042159;28;20025;-53
2022/01/28 16:04:21;;;;;;;11.68;6.22;;;;;;;;;;5046474;28;20443;-51
2022/01/28 16:06:49;;;;;;;10.85;6.03;;;;;;;;;;5043999;28;20095;-54
2022/01/28 16:09:15;;;;;;;9.38;5.55;;;;;;;;;;5057120;28;20035;-52
2022/01/28 16:11:51;;;;;;;11.20;6.82;;;;;;;;;;5050802;28;20029;-55
2022/01/28 16:14:27;;;;;;;11.13;6.07;;;;;;;;;;5064117;28;20466;-52